sensor_id;sensor_type;location;lat;lon;timestamp;pressure;altitude;pressure_sealevel;temperature;humidity
32033;BME280;31720;52.638;9.216;2023-12-29T00:02:22;100322.78;;;10.46;100.00
32033;BME280;31720;52.638;9.216;2023-12-29T00:05:23;100328.38;;;10.39;100.00
32033;BME280;31720;52.638;9.216;2023-12-29T00:08:25;100301.50;;;10.50;100.00
32033;BME280;31720;52.638;9.216;2023-12-29T00:11:27;100309.84;;;10.57;100.00
32033;BME280;31720;52.638;9.216;2023-12-29T00:14:29;100303.72;;;10.56;100.00
32033;BME280;31720;52.638;9.216;2023-12-29T00:17:30;100302.72;;;10.45;100.00
32033;BME280;31720;52.638;9.216;2023-12-29T00:20:32;100307.84;;;10.46;100.00
32033;BME280;31720;52.638;9.216;2023-12-29T00:23:33;100292.66;;;10.51;100.00
32033;BME280;31720;52.638;9.216;2023-12-29T00:26:36;100279.91;;;10.45;100.00
32033;BME280;31720;52.638;9.216;2023-12-29T00:29:37;100287.50;;;10.50;100.00
32033;BME280;31720;52.638;9.216;2023-12-29T00:32:39;100302.44;;;10.49;100.00
32033;BME280;31720;52.638;9.216;2023-12-29T00:35:41;100283.94;;;10.51;100.00
32033;BME280;31720;52.638;9.216;2023-12-29T00:38:42;100292.66;;;10.51;100.00
32033;BME280;31720;52.638;9.216;2023-12-29T00:41:45;100293.59;;;10.50;100.00
32033;BME280;31720;52.638;9.216;2023-12-29T00:44:46;100285.06;;;10.61;100.00
32033;BME280;31720;52.638;9.216;2023-12-29T00:47:47;100292.00;;;10.62;100.00
32033;BME280;31720;52.638;9.216;2023-12-29T00:50:50;100293.78;;;10.61;100.00
32033;BME280;31720;52.638;9.216;2023-12-29T00:53:52;100287.59;;;10.48;100.00
32033;BME280;31720;52.638;9.216;2023-12-29T00:56:54;100295.75;;;10.44;100.00
32033;BME280;31720;52.638;9.216;2023-12-29T00:59:56;100284.50;;;10.41;100.00
32033;BME280;31720;52.638;9.216;2023-12-29T01:02:57;100292.72;;;10.35;100.00
32033;BME280;31720;52.638;9.216;2023-12-29T01:05:59;100307.50;;;10.22;100.00
32033;BME280;31720;52.638;9.216;2023-12-29T01:09:00;100304.19;;;9.88;100.00
32033;BME280;31720;52.638;9.216;2023-12-29T01:12:03;100298.06;;;9.58;100.00
32033;BME280;31720;52.638;9.216;2023-12-29T01:15:05;100293.44;;;9.47;100.00
32033;BME280;31720;52.638;9.216;2023-12-29T01:18:06;100300.03;;;9.38;100.00
32033;BME280;31720;52.638;9.216;2023-12-29T01:21:08;100300.44;;;9.31;100.00
32033;BME280;31720;52.638;9.216;2023-12-29T01:24:09;100283.97;;;9.29;100.00
32033;BME280;31720;52.638;9.216;2023-12-29T01:27:12;100290.91;;;9.30;100.00
32033;BME280;31720;52.638;9.216;2023-12-29T01:30:13;100286.16;;;9.21;100.00
32033;BME280;31720;52.638;9.216;2023-12-29T01:33:15;100273.81;;;9.07;100.00
32033;BME280;31720;52.638;9.216;2023-12-29T01:36:19;100283.38;;;8.92;100.00
32033;BME280;31720;52.638;9.216;2023-12-29T01:39:20;100280.31;;;8.84;100.00
32033;BME280;31720;52.638;9.216;2023-12-29T01:42:23;100277.19;;;8.77;100.00
32033;BME280;31720;52.638;9.216;2023-12-29T01:45:24;100273.03;;;8.73;100.00
32033;BME280;31720;52.638;9.216;2023-12-29T01:48:26;100281.72;;;8.74;100.00
32033;BME280;31720;52.638;9.216;2023-12-29T01:51:28;100270.22;;;8.76;100.00
32033;BME280;31720;52.638;9.216;2023-12-29T01:54:33;100256.47;;;8.73;100.00
32033;BME280;31720;52.638;9.216;2023-12-29T01:57:37;100252.81;;;8.75;100.00
32033;BME280;31720;52.638;9.216;2023-12-29T02:00:39;100234.47;;;8.75;100.00
32033;BME280;31720;52.638;9.216;2023-12-29T02:03:40;100232.31;;;8.68;100.00
32033;BME280;31720;52.638;9.216;2023-12-29T02:06:43;100221.81;;;8.68;100.00
32033;BME280;31720;52.638;9.216;2023-12-29T02:09:44;100207.59;;;8.72;100.00
32033;BME280;31720;52.638;9.216;2023-12-29T02:12:47;100214.47;;;8.74;100.00
32033;BME280;31720;52.638;9.216;2023-12-29T02:15:50;100209.06;;;8.77;100.00
32033;BME280;31720;52.638;9.216;2023-12-29T02:18:54;100220.28;;;8.79;100.00
32033;BME280;31720;52.638;9.216;2023-12-29T02:21:58;100220.81;;;8.86;100.00
32033;BME280;31720;52.638;9.216;2023-12-29T02:25:00;100207.53;;;8.89;100.00
32033;BME280;31720;52.638;9.216;2023-12-29T02:28:08;100201.88;;;8.97;100.00
32033;BME280;31720;52.638;9.216;2023-12-29T02:31:16;100198.56;;;8.93;100.00
32033;BME280;31720;52.638;9.216;2023-12-29T02:34:19;100177.50;;;8.95;100.00
32033;BME280;31720;52.638;9.216;2023-12-29T02:37:23;100197.47;;;8.97;100.00
32033;BME280;31720;52.638;9.216;2023-12-29T02:40:26;100188.41;;;9.19;100.00
32033;BME280;31720;52.638;9.216;2023-12-29T02:43:30;100194.72;;;9.30;100.00
32033;BME280;31720;52.638;9.216;2023-12-29T02:46:32;100182.72;;;9.26;100.00
32033;BME280;31720;52.638;9.216;2023-12-29T02:49:33;100179.72;;;9.18;100.00
32033;BME280;31720;52.638;9.216;2023-12-29T02:52:35;100173.53;;;9.19;100.00
32033;BME280;31720;52.638;9.216;2023-12-29T02:55:38;100181.81;;;9.11;100.00
32033;BME280;31720;52.638;9.216;2023-12-29T02:58:39;100167.72;;;9.14;100.00
32033;BME280;31720;52.638;9.216;2023-12-29T03:01:41;100162.78;;;9.08;100.00
32033;BME280;31720;52.638;9.216;2023-12-29T03:04:42;100141.81;;;9.08;100.00
32033;BME280;31720;52.638;9.216;2023-12-29T03:07:44;100151.47;;;9.07;100.00
32033;BME280;31720;52.638;9.216;2023-12-29T03:10:47;100141.81;;;9.08;100.00
32033;BME280;31720;52.638;9.216;2023-12-29T03:13:48;100147.16;;;9.22;100.00
32033;BME280;31720;52.638;9.216;2023-12-29T03:16:50;100138.69;;;9.17;100.00
32033;BME280;31720;52.638;9.216;2023-12-29T03:19:52;100142.25;;;9.16;100.00
32033;BME280;31720;52.638;9.216;2023-12-29T03:22:53;100134.31;;;9.18;100.00
32033;BME280;31720;52.638;9.216;2023-12-29T03:25:56;100142.56;;;9.26;100.00
32033;BME280;31720;52.638;9.216;2023-12-29T03:28:58;100139.31;;;9.36;100.00
32033;BME280;31720;52.638;9.216;2023-12-29T03:31:59;100136.88;;;9.33;100.00
32033;BME280;31720;52.638;9.216;2023-12-29T03:35:00;100122.75;;;9.36;100.00
32033;BME280;31720;52.638;9.216;2023-12-29T03:38:02;100111.66;;;9.31;100.00
32033;BME280;31720;52.638;9.216;2023-12-29T03:41:05;100128.06;;;9.34;100.00
32033;BME280;31720;52.638;9.216;2023-12-29T03:44:06;100142.44;;;9.43;100.00
32033;BME280;31720;52.638;9.216;2023-12-29T03:47:09;100128.03;;;9.50;100.00
32033;BME280;31720;52.638;9.216;2023-12-29T03:50:10;100144.44;;;9.54;100.00
32033;BME280;31720;52.638;9.216;2023-12-29T03:53:12;100154.84;;;9.55;100.00
32033;BME280;31720;52.638;9.216;2023-12-29T03:56:18;100158.78;;;9.32;100.00
32033;BME280;31720;52.638;9.216;2023-12-29T03:59:19;100162.69;;;9.25;100.00
32033;BME280;31720;52.638;9.216;2023-12-29T04:02:21;100163.72;;;9.07;100.00
32033;BME280;31720;52.638;9.216;2023-12-29T04:05:22;100156.22;;;9.01;100.00
32033;BME280;31720;52.638;9.216;2023-12-29T04:08:23;100148.63;;;8.96;100.00
32033;BME280;31720;52.638;9.216;2023-12-29T04:11:26;100166.28;;;8.93;100.00
32033;BME280;31720;52.638;9.216;2023-12-29T04:14:27;100161.22;;;8.89;100.00
32033;BME280;31720;52.638;9.216;2023-12-29T04:17:29;100140.81;;;8.95;100.00
32033;BME280;31720;52.638;9.216;2023-12-29T04:20:30;100152.19;;;8.95;100.00
32033;BME280;31720;52.638;9.216;2023-12-29T04:23:31;100150.16;;;9.00;100.00
32033;BME280;31720;52.638;9.216;2023-12-29T04:26:36;100154.28;;;9.04;100.00
32033;BME280;31720;52.638;9.216;2023-12-29T04:29:38;100132.38;;;9.05;100.00
32033;BME280;31720;52.638;9.216;2023-12-29T04:32:39;100140.50;;;9.01;100.00
32033;BME280;31720;52.638;9.216;2023-12-29T04:35:40;100137.09;;;8.99;100.00
32033;BME280;31720;52.638;9.216;2023-12-29T04:38:42;100132.38;;;8.89;100.00
32033;BME280;31720;52.638;9.216;2023-12-29T04:41:44;100136.03;;;8.87;100.00
32033;BME280;31720;52.638;9.216;2023-12-29T04:44:46;100136.09;;;8.85;100.00
32033;BME280;31720;52.638;9.216;2023-12-29T04:47:47;100145.75;;;8.85;100.00
32033;BME280;31720;52.638;9.216;2023-12-29T04:50:48;100141.19;;;8.88;100.00
32033;BME280;31720;52.638;9.216;2023-12-29T04:53:50;100130.13;;;8.83;100.00
32033;BME280;31720;52.638;9.216;2023-12-29T04:56:53;100147.94;;;8.93;100.00
32033;BME280;31720;52.638;9.216;2023-12-29T04:59:54;100136.47;;;8.95;100.00
32033;BME280;31720;52.638;9.216;2023-12-29T05:02:56;100137.19;;;8.97;100.00
32033;BME280;31720;52.638;9.216;2023-12-29T05:05:57;100153.03;;;8.96;100.00
32033;BME280;31720;52.638;9.216;2023-12-29T05:08:58;100147.06;;;9.08;100.00
32033;BME280;31720;52.638;9.216;2023-12-29T05:12:01;100133.31;;;9.04;100.00
32033;BME280;31720;52.638;9.216;2023-12-29T05:15:03;100130.59;;;9.06;100.00
32033;BME280;31720;52.638;9.216;2023-12-29T05:18:05;100152.41;;;9.06;100.00
32033;BME280;31720;52.638;9.216;2023-12-29T05:21:14;100140.72;;;9.12;100.00
32033;BME280;31720;52.638;9.216;2023-12-29T05:24:15;100141.81;;;9.08;100.00
32033;BME280;31720;52.638;9.216;2023-12-29T05:27:18;100149.94;;;9.03;100.00
32033;BME280;31720;52.638;9.216;2023-12-29T05:30:19;100144.22;;;8.97;100.00
32033;BME280;31720;52.638;9.216;2023-12-29T05:33:20;100147.09;;;8.92;100.00
32033;BME280;31720;52.638;9.216;2023-12-29T05:36:22;100158.69;;;8.88;100.00
32033;BME280;31720;52.638;9.216;2023-12-29T05:39:23;100157.25;;;8.82;100.00
32033;BME280;31720;52.638;9.216;2023-12-29T05:42:26;100149.41;;;8.82;100.00
32033;BME280;31720;52.638;9.216;2023-12-29T05:45:27;100144.16;;;8.82;100.00
32033;BME280;31720;52.638;9.216;2023-12-29T05:48:28;100147.72;;;8.81;100.00
32033;BME280;31720;52.638;9.216;2023-12-29T05:51:30;100148.63;;;8.80;100.00
32033;BME280;31720;52.638;9.216;2023-12-29T05:54:31;100158.34;;;8.78;100.00
32033;BME280;31720;52.638;9.216;2023-12-29T05:57:34;100150.59;;;8.77;100.00
32033;BME280;31720;52.638;9.216;2023-12-29T06:00:35;100155.63;;;8.80;100.00
32033;BME280;31720;52.638;9.216;2023-12-29T06:03:37;100167.91;;;8.79;100.00
32033;BME280;31720;52.638;9.216;2023-12-29T06:06:38;100167.41;;;8.73;100.00
32033;BME280;31720;52.638;9.216;2023-12-29T06:09:40;100165.53;;;8.75;100.00
32033;BME280;31720;52.638;9.216;2023-12-29T06:12:42;100165.97;;;8.83;100.00
32033;BME280;31720;52.638;9.216;2023-12-29T06:15:44;100180.16;;;8.79;100.00
32033;BME280;31720;52.638;9.216;2023-12-29T06:18:45;100173.91;;;8.81;100.00
32033;BME280;31720;52.638;9.216;2023-12-29T06:21:47;100181.53;;;8.86;100.00
32033;BME280;31720;52.638;9.216;2023-12-29T06:24:48;100193.69;;;8.87;100.00
32033;BME280;31720;52.638;9.216;2023-12-29T06:27:51;100188.44;;;8.87;100.00
32033;BME280;31720;52.638;9.216;2023-12-29T06:30:52;100195.47;;;8.86;100.00
32033;BME280;31720;52.638;9.216;2023-12-29T06:33:53;100181.25;;;8.91;100.00
32033;BME280;31720;52.638;9.216;2023-12-29T06:36:55;100183.69;;;8.94;100.00
32033;BME280;31720;52.638;9.216;2023-12-29T06:39:56;100176.69;;;8.94;100.00
32033;BME280;31720;52.638;9.216;2023-12-29T06:42:59;100177.25;;;8.99;100.00
32033;BME280;31720;52.638;9.216;2023-12-29T06:46:00;100191.31;;;8.98;100.00
32033;BME280;31720;52.638;9.216;2023-12-29T06:49:02;100190.63;;;9.10;100.00
32033;BME280;31720;52.638;9.216;2023-12-29T06:52:04;100181.59;;;9.00;100.00
32033;BME280;31720;52.638;9.216;2023-12-29T06:55:06;100179.66;;;8.88;100.00
32033;BME280;31720;52.638;9.216;2023-12-29T06:58:09;100199.19;;;8.82;100.00
32033;BME280;31720;52.638;9.216;2023-12-29T07:01:10;100183.28;;;8.70;100.00
32033;BME280;31720;52.638;9.216;2023-12-29T07:04:12;100185.66;;;8.74;100.00
32033;BME280;31720;52.638;9.216;2023-12-29T07:07:14;100200.94;;;8.66;100.00
32033;BME280;31720;52.638;9.216;2023-12-29T07:10:15;100216.91;;;8.61;100.00
32033;BME280;31720;52.638;9.216;2023-12-29T07:13:18;100212.78;;;8.40;100.00
32033;BME280;31720;52.638;9.216;2023-12-29T07:16:19;100213.44;;;8.28;100.00
32033;BME280;31720;52.638;9.216;2023-12-29T07:19:21;100214.59;;;8.22;100.00
32033;BME280;31720;52.638;9.216;2023-12-29T07:22:22;100207.13;;;8.14;100.00
32033;BME280;31720;52.638;9.216;2023-12-29T07:25:23;100212.53;;;8.11;100.00
32033;BME280;31720;52.638;9.216;2023-12-29T07:28:27;100210.13;;;8.07;100.00
32033;BME280;31720;52.638;9.216;2023-12-29T07:31:28;100217.06;;;8.08;100.00
32033;BME280;31720;52.638;9.216;2023-12-29T07:34:30;100215.97;;;8.12;100.00
32033;BME280;31720;52.638;9.216;2023-12-29T07:37:31;100220.31;;;8.13;100.00
32033;BME280;31720;52.638;9.216;2023-12-29T07:40:32;100215.97;;;8.12;100.00
32033;BME280;31720;52.638;9.216;2023-12-29T07:43:35;100214.19;;;8.12;100.00
32033;BME280;31720;52.638;9.216;2023-12-29T07:46:37;100229.00;;;8.13;100.00
32033;BME280;31720;52.638;9.216;2023-12-29T07:49:41;100233.53;;;8.10;100.00
32033;BME280;31720;52.638;9.216;2023-12-29T07:52:42;100235.09;;;8.14;100.00
32033;BME280;31720;52.638;9.216;2023-12-29T07:55:44;100230.00;;;8.11;100.00
32033;BME280;31720;52.638;9.216;2023-12-29T07:58:48;100218.78;;;8.09;100.00
32033;BME280;31720;52.638;9.216;2023-12-29T08:01:49;100231.63;;;8.13;100.00
32033;BME280;31720;52.638;9.216;2023-12-29T08:04:51;100235.22;;;8.11;100.00
32033;BME280;31720;52.638;9.216;2023-12-29T08:07:52;100238.41;;;8.18;100.00
32033;BME280;31720;52.638;9.216;2023-12-29T08:10:55;100231.28;;;8.20;100.00
32033;BME280;31720;52.638;9.216;2023-12-29T08:13:57;100230.13;;;8.25;100.00
32033;BME280;31720;52.638;9.216;2023-12-29T08:16:59;100230.81;;;8.29;100.00
32033;BME280;31720;52.638;9.216;2023-12-29T08:20:00;100228.78;;;8.34;100.00
32033;BME280;31720;52.638;9.216;2023-12-29T08:23:02;100226.97;;;8.36;100.00
32033;BME280;31720;52.638;9.216;2023-12-29T08:26:04;100216.78;;;8.47;100.00
32033;BME280;31720;52.638;9.216;2023-12-29T08:29:06;100210.81;;;8.61;100.00
32033;BME280;31720;52.638;9.216;2023-12-29T08:32:08;100213.03;;;8.69;100.00
32033;BME280;31720;52.638;9.216;2023-12-29T08:35:09;100201.28;;;8.76;100.00
32033;BME280;31720;52.638;9.216;2023-12-29T08:38:10;100180.91;;;8.81;100.00
32033;BME280;31720;52.638;9.216;2023-12-29T08:41:13;100192.50;;;8.93;100.00
32033;BME280;31720;52.638;9.216;2023-12-29T08:44:16;100185.56;;;8.92;100.00
32033;BME280;31720;52.638;9.216;2023-12-29T08:47:17;100178.72;;;9.05;100.00
32033;BME280;31720;52.638;9.216;2023-12-29T08:50:19;100190.78;;;9.07;100.00
32033;BME280;31720;52.638;9.216;2023-12-29T08:53:21;100188.50;;;9.17;100.00
32033;BME280;31720;52.638;9.216;2023-12-29T08:56:23;100181.66;;;9.14;100.00
32033;BME280;31720;52.638;9.216;2023-12-29T08:59:26;100172.38;;;9.09;100.00
32033;BME280;31720;52.638;9.216;2023-12-29T09:02:27;100193.47;;;9.22;100.00
32033;BME280;31720;52.638;9.216;2023-12-29T09:05:28;100189.47;;;9.30;100.00
32033;BME280;31720;52.638;9.216;2023-12-29T09:08:29;100183.50;;;9.28;100.00
32033;BME280;31720;52.638;9.216;2023-12-29T09:11:31;100168.91;;;9.38;100.00
32033;BME280;31720;52.638;9.216;2023-12-29T09:14:33;100167.53;;;9.47;100.00
32033;BME280;31720;52.638;9.216;2023-12-29T09:17:35;100174.00;;;9.42;100.00
32033;BME280;31720;52.638;9.216;2023-12-29T09:20:36;100166.88;;;9.44;100.00
32033;BME280;31720;52.638;9.216;2023-12-29T09:23:37;100174.75;;;9.44;100.00
32033;BME280;31720;52.638;9.216;2023-12-29T09:26:39;100177.28;;;9.45;100.00
32033;BME280;31720;52.638;9.216;2023-12-29T09:29:42;100169.81;;;9.53;100.00
32033;BME280;31720;52.638;9.216;2023-12-29T09:32:43;100196.81;;;9.55;100.00
32033;BME280;31720;52.638;9.216;2023-12-29T09:35:45;100189.06;;;9.68;100.00
32033;BME280;31720;52.638;9.216;2023-12-29T09:38:46;100185.41;;;9.71;100.00
32033;BME280;31720;52.638;9.216;2023-12-29T09:41:51;100181.00;;;9.71;100.00
32033;BME280;31720;52.638;9.216;2023-12-29T09:44:54;100193.22;;;9.72;100.00
32033;BME280;31720;52.638;9.216;2023-12-29T09:47:56;100175.47;;;9.76;100.00
32033;BME280;31720;52.638;9.216;2023-12-29T09:50:59;100176.31;;;9.76;100.00
32033;BME280;31720;52.638;9.216;2023-12-29T09:54:01;100171.84;;;9.78;100.00
32033;BME280;31720;52.638;9.216;2023-12-29T09:57:04;100168.94;;;9.83;100.00
32033;BME280;31720;52.638;9.216;2023-12-29T10:00:10;100179.34;;;9.84;100.00
32033;BME280;31720;52.638;9.216;2023-12-29T10:03:12;100176.41;;;9.75;100.00
32033;BME280;31720;52.638;9.216;2023-12-29T10:06:17;100191.31;;;9.74;100.00
32033;BME280;31720;52.638;9.216;2023-12-29T10:09:21;100176.59;;;9.72;100.00
32033;BME280;31720;52.638;9.216;2023-12-29T10:12:23;100179.13;;;9.59;100.00
32033;BME280;31720;52.638;9.216;2023-12-29T10:15:33;100193.34;;;9.55;100.00
32033;BME280;31720;52.638;9.216;2023-12-29T10:18:42;100182.91;;;9.53;100.00
32033;BME280;31720;52.638;9.216;2023-12-29T10:21:52;100187.53;;;9.50;100.00
32033;BME280;31720;52.638;9.216;2023-12-29T10:24:56;100217.94;;;9.52;100.00
32033;BME280;31720;52.638;9.216;2023-12-29T10:27:58;100200.91;;;9.45;100.00
32033;BME280;31720;52.638;9.216;2023-12-29T10:31:00;100231.00;;;9.38;100.00
32033;BME280;31720;52.638;9.216;2023-12-29T10:34:18;100188.91;;;9.25;100.00
32033;BME280;31720;52.638;9.216;2023-12-29T10:37:22;100213.22;;;9.13;100.00
32033;BME280;31720;52.638;9.216;2023-12-29T10:40:24;100215.66;;;9.00;100.00
32033;BME280;31720;52.638;9.216;2023-12-29T10:43:26;100199.59;;;8.91;100.00
32033;BME280;31720;52.638;9.216;2023-12-29T10:46:28;100192.34;;;8.96;100.00
32033;BME280;31720;52.638;9.216;2023-12-29T10:49:30;100201.00;;;8.80;100.00
32033;BME280;31720;52.638;9.216;2023-12-29T10:52:32;100172.97;;;8.82;100.00
32033;BME280;31720;52.638;9.216;2023-12-29T10:55:33;100185.56;;;8.76;100.00
32033;BME280;31720;52.638;9.216;2023-12-29T10:58:34;100175.59;;;8.82;100.00
32033;BME280;31720;52.638;9.216;2023-12-29T11:01:38;100181.94;;;8.78;100.00
32033;BME280;31720;52.638;9.216;2023-12-29T11:04:40;100172.38;;;8.77;100.00
32033;BME280;31720;52.638;9.216;2023-12-29T11:07:41;100168.84;;;8.78;100.00
32033;BME280;31720;52.638;9.216;2023-12-29T11:10:43;100177.38;;;8.82;100.00
32033;BME280;31720;52.638;9.216;2023-12-29T11:13:46;100179.81;;;8.85;100.00
32033;BME280;31720;52.638;9.216;2023-12-29T11:16:49;100180.38;;;8.90;100.00
32033;BME280;31720;52.638;9.216;2023-12-29T11:19:52;100199.84;;;8.86;100.00
32033;BME280;31720;52.638;9.216;2023-12-29T11:22:54;100165.69;;;8.87;100.00
32033;BME280;31720;52.638;9.216;2023-12-29T11:25:56;100172.38;;;8.93;100.00
32033;BME280;31720;52.638;9.216;2023-12-29T11:28:58;100180.31;;;8.92;100.00
32033;BME280;31720;52.638;9.216;2023-12-29T11:32:03;100179.88;;;8.99;100.00
32033;BME280;31720;52.638;9.216;2023-12-29T11:35:12;100180.50;;;9.04;100.00
32033;BME280;31720;52.638;9.216;2023-12-29T11:38:29;100171.53;;;9.08;100.00
32033;BME280;31720;52.638;9.216;2023-12-29T11:41:39;100160.84;;;9.11;100.00
32033;BME280;31720;52.638;9.216;2023-12-29T11:44:42;100166.25;;;9.24;100.00
32033;BME280;31720;52.638;9.216;2023-12-29T11:47:45;100181.88;;;9.26;100.00
32033;BME280;31720;52.638;9.216;2023-12-29T11:50:53;100176.38;;;9.30;100.00
32033;BME280;31720;52.638;9.216;2023-12-29T11:53:55;100186.88;;;9.30;100.00
32033;BME280;31720;52.638;9.216;2023-12-29T11:56:56;100161.16;;;9.37;100.00
32033;BME280;31720;52.638;9.216;2023-12-29T11:59:58;100171.44;;;9.40;100.00
32033;BME280;31720;52.638;9.216;2023-12-29T12:03:00;100160.63;;;9.46;100.00
32033;BME280;31720;52.638;9.216;2023-12-29T12:06:02;100150.31;;;9.57;100.00
32033;BME280;31720;52.638;9.216;2023-12-29T12:09:16;100148.47;;;9.59;100.00
32033;BME280;31720;52.638;9.216;2023-12-29T12:12:38;100155.56;;;9.57;100.00
32033;BME280;31720;52.638;9.216;2023-12-29T12:15:39;100147.91;;;9.54;100.00
32033;BME280;31720;52.638;9.216;2023-12-29T12:18:43;100159.44;;;9.66;100.00
32033;BME280;31720;52.638;9.216;2023-12-29T12:21:46;100152.13;;;9.71;100.00
32033;BME280;31720;52.638;9.216;2023-12-29T12:24:49;100160.28;;;9.66;100.00
32033;BME280;31720;52.638;9.216;2023-12-29T12:27:52;100148.31;;;9.77;100.00
32033;BME280;31720;52.638;9.216;2023-12-29T12:31:07;100147.94;;;9.83;100.00
32033;BME280;31720;52.638;9.216;2023-12-29T12:34:10;100138.47;;;9.95;100.00
32033;BME280;31720;52.638;9.216;2023-12-29T12:37:11;100132.03;;;9.86;100.00
32033;BME280;31720;52.638;9.216;2023-12-29T12:40:24;100135.41;;;9.88;100.00
32033;BME280;31720;52.638;9.216;2023-12-29T12:43:26;100124.91;;;9.88;100.00
32033;BME280;31720;52.638;9.216;2023-12-29T12:46:33;100132.09;;;9.99;100.00
32033;BME280;31720;52.638;9.216;2023-12-29T12:49:36;100134.56;;;10.02;100.00
32033;BME280;31720;52.638;9.216;2023-12-29T12:52:38;100090.13;;;10.13;100.00
32033;BME280;31720;52.638;9.216;2023-12-29T12:55:40;100078.69;;;10.14;100.00
32033;BME280;31720;52.638;9.216;2023-12-29T12:58:42;100196.44;;;10.06;100.00
32033;BME280;31720;52.638;9.216;2023-12-29T13:01:44;100186.50;;;8.75;100.00
32033;BME280;31720;52.638;9.216;2023-12-29T13:04:46;100170.66;;;8.11;100.00
32033;BME280;31720;52.638;9.216;2023-12-29T13:07:48;100181.84;;;7.98;100.00
32033;BME280;31720;52.638;9.216;2023-12-29T13:10:50;100190.69;;;7.95;100.00
32033;BME280;31720;52.638;9.216;2023-12-29T13:13:51;100169.31;;;8.20;100.00
32033;BME280;31720;52.638;9.216;2023-12-29T13:16:56;100183.25;;;8.54;100.00
32033;BME280;31720;52.638;9.216;2023-12-29T13:19:59;100162.03;;;8.90;100.00
32033;BME280;31720;52.638;9.216;2023-12-29T13:23:01;100161.56;;;8.83;100.00
32033;BME280;31720;52.638;9.216;2023-12-29T13:26:05;100154.13;;;8.76;100.00
32033;BME280;31720;52.638;9.216;2023-12-29T13:29:06;100180.63;;;8.54;100.00
32033;BME280;31720;52.638;9.216;2023-12-29T13:32:10;100171.84;;;8.22;100.00
32033;BME280;31720;52.638;9.216;2023-12-29T13:35:21;100174.28;;;8.09;100.00
32033;BME280;31720;52.638;9.216;2023-12-29T13:38:28;100176.47;;;8.17;100.00
32033;BME280;31720;52.638;9.216;2023-12-29T13:41:33;100194.47;;;8.40;100.00
32033;BME280;31720;52.638;9.216;2023-12-29T13:44:36;100184.53;;;8.47;100.00
32033;BME280;31720;52.638;9.216;2023-12-29T13:47:39;100166.53;;;8.41;100.00
32033;BME280;31720;52.638;9.216;2023-12-29T13:50:44;100159.19;;;8.30;100.00
32033;BME280;31720;52.638;9.216;2023-12-29T13:53:46;100160.47;;;8.23;100.00
32033;BME280;31720;52.638;9.216;2023-12-29T13:56:51;100169.28;;;8.04;100.00
32033;BME280;31720;52.638;9.216;2023-12-29T13:59:53;100163.84;;;7.92;100.00
32033;BME280;31720;52.638;9.216;2023-12-29T14:03:01;100168.75;;;7.80;100.00
32033;BME280;31720;52.638;9.216;2023-12-29T14:06:07;100158.16;;;7.83;100.00
32033;BME280;31720;52.638;9.216;2023-12-29T14:09:14;100162.78;;;7.78;100.00
32033;BME280;31720;52.638;9.216;2023-12-29T14:12:23;100177.09;;;7.71;100.00
32033;BME280;31720;52.638;9.216;2023-12-29T14:15:25;100182.31;;;7.71;100.00
32033;BME280;31720;52.638;9.216;2023-12-29T14:18:47;100169.41;;;7.68;100.00
32033;BME280;31720;52.638;9.216;2023-12-29T14:21:54;100174.19;;;7.77;100.00
32033;BME280;31720;52.638;9.216;2023-12-29T14:25:00;100167.78;;;7.83;100.00
32033;BME280;31720;52.638;9.216;2023-12-29T14:28:02;100183.63;;;7.80;100.00
32033;BME280;31720;52.638;9.216;2023-12-29T14:31:04;100179.78;;;7.87;100.00
32033;BME280;31720;52.638;9.216;2023-12-29T14:34:06;100171.84;;;7.88;100.00
32033;BME280;31720;52.638;9.216;2023-12-29T14:37:09;100171.84;;;7.88;100.00
32033;BME280;31720;52.638;9.216;2023-12-29T14:40:11;100178.09;;;7.86;100.00
32033;BME280;31720;52.638;9.216;2023-12-29T14:43:12;100184.78;;;7.92;100.00
32033;BME280;31720;52.638;9.216;2023-12-29T14:46:13;100188.84;;;7.97;100.00
32033;BME280;31720;52.638;9.216;2023-12-29T14:49:15;100180.84;;;8.00;100.00
32033;BME280;31720;52.638;9.216;2023-12-29T14:52:18;100183.28;;;8.03;100.00
32033;BME280;31720;52.638;9.216;2023-12-29T14:55:20;100183.69;;;7.96;100.00
32033;BME280;31720;52.638;9.216;2023-12-29T14:58:21;100182.66;;;7.98;100.00
32033;BME280;31720;52.638;9.216;2023-12-29T15:01:23;100181.59;;;8.02;100.00
32033;BME280;31720;52.638;9.216;2023-12-29T15:04:26;100175.59;;;8.00;100.00
32033;BME280;31720;52.638;9.216;2023-12-29T15:07:33;100162.19;;;8.06;100.00
32033;BME280;31720;52.638;9.216;2023-12-29T15:10:34;100151.88;;;8.03;100.00
32033;BME280;31720;52.638;9.216;2023-12-29T15:13:35;100168.59;;;8.01;100.00
32033;BME280;31720;52.638;9.216;2023-12-29T15:16:38;100167.16;;;7.95;100.00
32033;BME280;31720;52.638;9.216;2023-12-29T15:19:40;100168.84;;;7.96;100.00
32033;BME280;31720;52.638;9.216;2023-12-29T15:22:42;100165.28;;;7.97;100.00
32033;BME280;31720;52.638;9.216;2023-12-29T15:25:44;100174.59;;;8.03;100.00
32033;BME280;31720;52.638;9.216;2023-12-29T15:28:45;100175.28;;;8.06;100.00
32033;BME280;31720;52.638;9.216;2023-12-29T15:31:46;100169.72;;;8.12;100.00
32033;BME280;31720;52.638;9.216;2023-12-29T15:34:48;100180.38;;;8.09;100.00
32033;BME280;31720;52.638;9.216;2023-12-29T15:37:50;100176.91;;;8.09;100.00
32033;BME280;31720;52.638;9.216;2023-12-29T15:40:52;100172.88;;;8.19;100.00
32033;BME280;31720;52.638;9.216;2023-12-29T15:43:53;100161.22;;;8.25;100.00
32033;BME280;31720;52.638;9.216;2023-12-29T15:46:54;100161.50;;;8.36;100.00
32033;BME280;31720;52.638;9.216;2023-12-29T15:49:57;100160.41;;;8.40;100.00
32033;BME280;31720;52.638;9.216;2023-12-29T15:53:00;100152.56;;;8.40;100.00
32033;BME280;31720;52.638;9.216;2023-12-29T15:56:02;100143.63;;;8.44;100.00